Regional La Paz
EstaciónAerodromoSit. GeograficaDescripción
SLLPInternaciónal El Alto16-08S-68-10W SLLP 180300Z VRB02KT 4000E VCFG FEW003 SCT012 FEW017CB BKN070 06/05 Q1035 A3058 626.4 HR93 VCFG NE/E/SE CB/LT NW CI NOSIG=
SLRYReyes14-18S-67-21W SLRY 172000Z 33012KT 8000 VCSH SCT020 BKN200 29/25 Q1002 A2961 HR79 SH E/SE RESH RWY HUM OPR=
SLRQRurrenabaque14-25S-67-29W SLRQ 172300Z 00000KT 9999 FEW017 FEW023CB BKN070 OVC200 29/25 Q1003 A2962 HR80 CB/E=
SLAPApolo14-44S-68-24W SLAP 161800Z 35015KT 9999 SCT020 BKN070 26/18 Q1012 A2989 853.5 HR63 CI=
SLSBSan Borja14-51S-66-44W SLSB 172300Z 00000KT 8000 VCSH FEW023CB SCT080 OVC200 27/26 Q1004 A2966 HR94 CB/SH NE E RWY WET OPR C210=
SLCNCharaña17-35S-69-25W
SLOROruro17-57S-67-04W SLOR 161400Z 36004KT 9999 FEW020 BKN200 13/07 Q1032 A3049 654.3 HR67 AC=
SLUYUyuni20-27S-62-52W SLUY 151700Z 00000KT 9999 SCT027 SCT200 18/01 Q1030 A3042 655.6 HR31=
SLCCCopacabana - Tito Yupanqui16-11S-69-05W
Regional Cochabamba
EstaciónAerodromoSit. GeograficaDescripción
SLVMVillamontes21-15S-63-24W SLVM 171900Z NIL=
SLHIChimore16-58S-65-09W SLHI 171900Z NIL=
SLCBCochabamba17-25S-66-10W SLCB 180300Z 00000KT 9999 FEW010 BKN025 OVC070 14/14 Q1024 A3025 750.8 HR99 ST BAJOS NE/E/S/SW SH N/NE NOSIG=
SLALAlcantari19-14S-65-09W SLAL 172300Z 36007KT 3000 BR BKN006 OVC070 10/09 Q1025 A3029 701.4 HR99=
SLPOPotosí19-32S-65-43W SLPO 171900Z NIL=
SLAGMonteagudo19-49S-63-58W SLAG 171900Z NIL=
SLTJTarija21-33S-64-42W COR SLTJ 180000Z 00000KT 9999 BKN033 OVC070 15/07 Q1022 A3020 817.2 HR63=
SLYAYacuiba21-57S-63-39W SLYA 171900Z NIL=
SLBJBermejo22-46S-64-18W SLBJ 171900Z NIL=
Regional Santa Cruz
EstaciónAerodromoSit. GeograficaDescripción
SLVGValle Grande18-28S-64-05W SLVG 171800Z 18005KT 3000 -RA BKN015 OVC070 14/14 Q1022 A3018 HR99 RWY WET OPR=
SLASAscención de Guarayos15-55S-63-09W SLAS 171900Z 18015KT 3000 -RA BKN012 FEW030CB OVC070 23/23 Q1011 A2986 HR95 CB N/NE/E RWY WET OPR=
SLCPConcepción16-08S-62-01W SLCP 171900Z 19015KT 9999 BKN013 OVC070 22/21 Q1012 A2988 HR96 RESH RWY HUM OPR=
SLJVSan Javier16-16S-62-28W SLJV 171800Z 36010KT 5000 -RA OVC015 23/23 Q1010 A2983 HR97 RWY WET OPR=
SLTISan Matías16-20S-58-24W SLTI 171800Z 35010KT 9999 SCT017 BKN070 31/24 Q1012 A2988 HR65 RWY NML=
SLSISan Ignacio de Velasco16-23S-60-57W SLSI 172300Z 22012KT 9999 BKN015 OVC070 22/21 Q1007 A2974 HR93 RWY NML=
SLVRInternaciónal Viru Viru17-38S-63-08W SLVR 180300Z 17010G21KT 9999 FEW023 BKN070 BKN200 21/17 Q1013 A2991 HR76 NOSIG=
SLETEl Trompillo17-48S-63-10W SLET 172300Z 18015G25KT 9999 BKN023 OVC070 21/18 Q1010 A2983 HR82 NOSIG=
SLJESan José de Chiquitos17-49S-60-44W SLJE 171800Z 18012KT 9999 OVC015 22/21 Q1010 A2983 HR92 RERA RWY CLSD PASTO CRECIDO=
SLRBRoboré18-19S-59-45W SLRB 172300Z 00000KT 8000 -RA OVC012 21/20 Q1010 A2983 HR95 RWY WET OPR=
SLPSPuerto Suárez18-58S-57-49W SLPS 152300Z 36004KT 9999 SCT017 FEW027CB BKN200 29/26 Q1006 A2971 HR87 CB/N/NE=
SLCACamiri20-00S-63-31W SLCA 172300Z 18004KT 9999 FEW036 OVC070 20/14 Q1017 A3003 HR68 RWY WET INOP=
Regional Beni
EstaciónAerodromoSit. GeograficaDescripción
SLTRTrinidad14-49S-64-54W SLTR 172300Z 13018KT 6000 VCSH SCT008 FEW020CB OVC070 24/23 Q1007 A2974 988.8 HR92 CB/SH E/SE/S/SW TEMPO TSRA=
SLCOCobija11-02S-68-47W SLCO 171700Z 32014KT 9999 BKN023 31/24 Q1008 A2977 980.8 HR65 AC=
SLGMGuayaramerín10-53S-65-23W SLGM 171900Z 36014KT 9999 SCT017 33/24 Q1006 A2971 HR59=
SLRIRiberalta11-00S-66-04W SLRI 172300Z 00000KT 5000 VCSH SCT015 FEW020CB BKN200 28/25 Q1006 A2972 HR85 CB/SH N/NE/NW=
SLJOSan Joaquin13-03S-64-39W SLJO 171900Z NIL=
SLRASan Ramón13-15S-64-36W SLRA 171900Z 34012KT 9999 FEW017 32/23 Q1006 A2972 HR59 CI RWY NML=
SLMGSan Magdalena13-15S-64-36W SLMG 171900Z 30014KT 9999 SCT017 31/25 Q1006 A2973 HR70 RWY NML=
SLBUBaures13-39S-63-42W SLBU 171900Z NIL=
SLSASanta Ana de Yacuma13-45S-65-26W SLSA 172300Z 34007KT 6000 TS VCSH SCT017 FEW020CB BKN200 26/24 Q1004 A2967 HR90 RESHRA CB/SH E/SE/S TS E=
SLSRSanta Rosa14-04S-66-47W SLSR 171900Z 34015KT 9999 FEW017 FEW023CB BKN200 32/25 Q1003 A2964 HR67 CB N/NE/SW RWY NML=
SLSMSan Ignacio de Moxos14-57S-65-38W SLSM 171900Z 36010KT 9999 BKN015 FEW020CB OVC080 30/25 Q1005 A2968 HR72 CB N/NE/E RERA RWY HUM OPR=